createdAt,value
2023-09-28T00:01:16.095Z,10.00
2023-09-28T00:03:48.559Z,10.63
2023-09-28T00:06:17.144Z,11.00
2023-09-28T00:08:44.283Z,11.00
2023-09-28T00:11:12.463Z,11.30
2023-09-28T00:13:40.985Z,12.30
2023-09-28T00:16:10.184Z,12.13
2023-09-28T00:18:37.648Z,12.93
2023-09-28T00:21:05.982Z,13.07
2023-09-28T00:23:33.239Z,13.60
2023-09-28T00:26:01.559Z,12.83
2023-09-28T00:28:28.912Z,12.70
2023-09-28T00:30:58.795Z,12.73
2023-09-28T00:33:25.978Z,12.70
2023-09-28T00:35:54.154Z,13.37
2023-09-28T00:38:21.246Z,13.10
2023-09-28T00:40:49.405Z,13.87
2023-09-28T00:43:25.714Z,13.47
2023-09-28T00:45:53.873Z,13.10
2023-09-28T00:48:22.671Z,12.67
2023-09-28T00:50:52.845Z,12.30
2023-09-28T00:53:22.483Z,12.80
2023-09-28T00:55:51.188Z,12.53
2023-09-28T00:58:18.348Z,12.90
2023-09-28T01:00:46.484Z,13.37
2023-09-28T01:03:13.748Z,12.53
2023-09-28T01:05:43.386Z,12.57
2023-09-28T01:08:13.437Z,12.17
2023-09-28T01:10:46.055Z,13.00
2023-09-28T01:13:16.781Z,13.10
2023-09-28T01:15:47.680Z,12.87
2023-09-28T01:18:16.767Z,13.10
2023-09-28T01:20:47.512Z,12.73
2023-09-28T01:23:16.333Z,13.47
2023-09-28T01:25:50.629Z,13.67
2023-09-28T01:28:18.870Z,12.93
2023-09-28T01:30:47.829Z,12.80
2023-09-28T01:33:15.168Z,12.27
2023-09-28T01:35:43.369Z,13.40
2023-09-28T01:38:20.109Z,12.47
2023-09-28T01:40:49.543Z,12.60
2023-09-28T01:43:17.987Z,12.30
2023-09-28T01:45:46.626Z,11.57
2023-09-28T01:48:14.163Z,11.90
2023-09-28T01:50:42.392Z,12.47
2023-09-28T01:53:09.570Z,12.97
2023-09-28T01:55:39.558Z,11.80
2023-09-28T01:58:09.166Z,12.37
2023-09-28T02:00:37.765Z,12.10
2023-09-28T02:03:06.522Z,11.63
2023-09-28T02:05:34.882Z,12.10
2023-09-28T02:08:03.633Z,11.60
2023-09-28T02:10:31.850Z,11.30
2023-09-28T02:13:00.494Z,10.87
2023-09-28T02:15:28.613Z,10.50
2023-09-28T02:17:55.882Z,10.53
2023-09-28T02:20:24.762Z,10.17
2023-09-28T02:22:54.411Z,10.10
2023-09-28T02:25:24.242Z,10.67
2023-09-28T02:27:52.448Z,9.97
2023-09-28T02:30:24.361Z,10.40
2023-09-28T02:32:53.492Z,9.77
2023-09-28T02:35:22.646Z,10.93
2023-09-28T02:37:52.617Z,10.30
2023-09-28T02:40:21.546Z,10.33
2023-09-28T02:42:49.778Z,10.57
2023-09-28T02:45:18.949Z,10.93
2023-09-28T02:47:49.749Z,11.20
2023-09-28T02:50:20.051Z,10.90
2023-09-28T02:52:48.667Z,10.90
2023-09-28T02:55:19.330Z,10.87
2023-09-28T02:57:48.155Z,11.50
2023-09-28T03:00:20.524Z,11.63
2023-09-28T03:02:50.790Z,11.70
2023-09-28T03:05:20.149Z,10.77
2023-09-28T03:07:47.576Z,11.80
2023-09-28T03:10:16.311Z,11.63
2023-09-28T03:12:46.179Z,11.37
2023-09-28T03:15:17.820Z,11.30
2023-09-28T03:17:47.508Z,11.73
2023-09-28T03:20:19.632Z,12.10
2023-09-28T03:22:48.596Z,12.20
2023-09-28T03:25:18.353Z,11.90
2023-09-28T03:27:46.785Z,12.20
2023-09-28T03:30:16.345Z,12.50
2023-09-28T03:32:45.007Z,12.00
2023-09-28T03:35:13.195Z,12.43
2023-09-28T03:37:43.624Z,12.93
2023-09-28T03:40:13.152Z,12.90
2023-09-28T03:42:42.627Z,12.37
2023-09-28T03:45:12.124Z,12.53
2023-09-28T03:47:40.737Z,11.73
2023-09-28T03:50:11.280Z,12.60
2023-09-28T03:52:39.963Z,12.97
2023-09-28T03:55:11.894Z,13.03
2023-09-28T03:57:40.120Z,13.17
2023-09-28T04:00:13.569Z,13.87
2023-09-28T04:02:43.244Z,13.90
2023-09-28T04:05:12.120Z,13.30
2023-09-28T04:07:41.503Z,13.07
2023-09-28T04:10:13.062Z,13.83
2023-09-28T04:12:42.081Z,13.63
2023-09-28T04:15:10.852Z,14.37
2023-09-28T04:17:42.011Z,13.77
2023-09-28T04:20:14.410Z,13.53
2023-09-28T04:22:43.188Z,14.20
2023-09-28T04:25:13.137Z,13.63
2023-09-28T04:27:41.262Z,13.00
2023-09-28T04:30:11.341Z,13.60
2023-09-28T04:32:39.544Z,13.83
2023-09-28T04:35:12.136Z,12.70
2023-09-28T04:37:41.225Z,12.97
2023-09-28T04:40:12.064Z,13.23
2023-09-28T04:42:43.760Z,14.73
2023-09-28T04:45:13.038Z,13.97
2023-09-28T04:47:41.281Z,13.50
2023-09-28T04:50:10.271Z,12.20
2023-09-28T04:52:38.452Z,13.03
2023-09-28T04:55:09.055Z,11.30
2023-09-28T04:57:37.640Z,12.20
2023-09-28T05:00:09.862Z,11.70
2023-09-28T05:02:40.342Z,11.63
2023-09-28T05:05:10.769Z,11.77
2023-09-28T05:07:38.937Z,12.07
2023-09-28T05:10:09.217Z,11.80
2023-09-28T05:12:37.375Z,11.73
2023-09-28T05:15:09.365Z,11.67
2023-09-28T05:17:37.576Z,11.80
2023-09-28T05:20:06.490Z,12.20
2023-09-28T05:22:34.661Z,11.50
2023-09-28T05:25:03.722Z,11.90
2023-09-28T05:27:31.778Z,10.73
2023-09-28T05:29:59.857Z,10.50
2023-09-28T05:32:30.066Z,11.17
2023-09-28T05:34:58.271Z,11.83
2023-09-28T05:37:26.744Z,11.20
2023-09-28T05:39:56.025Z,12.03
2023-09-28T05:42:24.159Z,12.43
2023-09-28T05:44:53.538Z,11.80
2023-09-28T05:47:24.048Z,12.30
2023-09-28T05:49:54.038Z,11.50
2023-09-28T05:52:23.744Z,14.40
2023-09-28T05:54:51.850Z,15.30
2023-09-28T05:57:21.858Z,16.20
2023-09-28T05:59:50.104Z,15.50
2023-09-28T06:02:18.345Z,17.90
2023-09-28T06:04:46.546Z,16.33
2023-09-28T06:07:16.350Z,17.10
2023-09-28T06:09:44.476Z,17.20
2023-09-28T06:12:12.620Z,17.77
2023-09-28T06:14:40.794Z,17.80
2023-09-28T06:17:08.982Z,17.97
2023-09-28T06:19:47.546Z,18.27
2023-09-28T06:22:24.769Z,19.30
2023-09-28T06:24:52.960Z,17.87
2023-09-28T06:27:21.037Z,16.93
2023-09-28T06:29:54.310Z,17.90
2023-09-28T06:32:23.786Z,17.67
2023-09-28T06:34:52.251Z,16.53
2023-09-28T06:37:20.517Z,16.30
2023-09-28T06:39:50.127Z,16.87
2023-09-28T06:42:34.511Z,16.87
2023-09-28T06:45:08.524Z,14.93
2023-09-28T06:47:50.783Z,15.40
2023-09-28T06:50:22.801Z,15.43
2023-09-28T06:52:52.657Z,15.90
2023-09-28T06:55:23.584Z,14.00
2023-09-28T06:57:52.284Z,14.33
2023-09-28T07:00:21.334Z,13.73
2023-09-28T07:02:49.575Z,13.53
2023-09-28T07:05:18.388Z,13.83
2023-09-28T07:07:48.298Z,14.07
2023-09-28T07:10:16.716Z,14.20
2023-09-28T07:12:46.187Z,14.27
2023-09-28T07:15:14.350Z,15.30
2023-09-28T07:17:44.913Z,15.90
2023-09-28T07:20:15.390Z,17.40
2023-09-28T07:22:46.145Z,15.50
2023-09-28T07:25:13.291Z,15.20
2023-09-28T07:27:43.160Z,13.93
2023-09-28T07:30:13.737Z,12.70
2023-09-28T07:32:42.111Z,11.90
2023-09-28T07:35:11.557Z,11.50
2023-09-28T07:37:39.812Z,10.60
2023-09-28T07:40:13.173Z,10.80
2023-09-28T07:42:44.796Z,9.95
2023-09-28T07:45:16.368Z,9.93
2023-09-28T07:47:44.786Z,8.77
2023-09-28T07:50:16.025Z,9.05
2023-09-28T07:52:45.199Z,9.13
2023-09-28T07:55:14.470Z,8.80
2023-09-28T08:00:18.746Z,7.88
2023-09-28T08:02:46.974Z,7.88
2023-09-28T08:05:15.183Z,7.40
2023-09-28T08:07:47.594Z,7.60
2023-09-28T08:10:26.643Z,7.55
2023-09-28T08:12:54.869Z,7.25
2023-09-28T08:15:36.023Z,6.80
2023-09-28T08:18:05.960Z,7.07
2023-09-28T08:20:35.785Z,6.80
2023-09-28T08:23:06.140Z,5.97
2023-09-28T08:25:35.441Z,6.35
2023-09-28T08:28:03.509Z,6.22
2023-09-28T08:30:32.963Z,6.03
2023-09-28T08:33:02.734Z,6.05
2023-09-28T08:35:33.102Z,5.50
2023-09-28T08:38:01.456Z,6.68
2023-09-28T08:40:31.737Z,5.82
2023-09-28T08:43:04.397Z,5.95
2023-09-28T08:45:34.934Z,5.75
2023-09-28T08:48:09.227Z,5.80
2023-09-28T08:50:40.356Z,6.00
2023-09-28T08:53:09.084Z,5.40
2023-09-28T08:55:40.060Z,5.32
2023-09-28T08:58:09.658Z,4.95
2023-09-28T09:00:40.338Z,5.22
2023-09-28T09:03:09.880Z,4.68
2023-09-28T09:05:42.242Z,5.00
2023-09-28T09:08:12.935Z,4.88
2023-09-28T09:10:44.968Z,4.82
2023-09-28T09:13:19.558Z,4.72
2023-09-28T09:15:50.409Z,4.68
2023-09-28T09:18:21.991Z,4.28
2023-09-28T09:20:50.959Z,5.10
2023-09-28T09:23:19.865Z,5.35
2023-09-28T09:25:49.571Z,5.60
2023-09-28T09:28:30.271Z,5.65
2023-09-28T09:31:00.138Z,5.53
2023-09-28T09:33:29.748Z,5.10
2023-09-28T09:35:58.226Z,4.90
2023-09-28T09:38:29.620Z,5.55
2023-09-28T09:41:01.491Z,5.07
2023-09-28T09:43:33.386Z,5.80
2023-09-28T09:46:05.153Z,5.45
2023-09-28T09:48:41.282Z,5.70
2023-09-28T09:51:12.307Z,5.03
2023-09-28T09:53:44.795Z,5.45
2023-09-28T09:56:14.190Z,6.00
2023-09-28T09:58:48.905Z,5.75
2023-09-28T10:01:20.454Z,5.25
2023-09-28T10:03:51.842Z,5.40
2023-09-28T10:06:21.442Z,5.22
2023-09-28T10:08:51.153Z,5.82
2023-09-28T10:11:20.478Z,5.70
2023-09-28T10:13:50.853Z,5.20
2023-09-28T10:16:21.317Z,4.68
2023-09-28T10:18:54.554Z,3.95
2023-09-28T10:21:23.005Z,4.25
2023-09-28T10:23:56.885Z,3.67
2023-09-28T10:26:32.313Z,3.90
2023-09-28T10:29:05.108Z,3.83
2023-09-28T10:31:50.126Z,4.07
2023-09-28T10:34:26.046Z,3.85
2023-09-28T10:37:20.766Z,4.13
2023-09-28T10:39:53.887Z,3.95
2023-09-28T10:42:23.202Z,3.90
2023-09-28T10:44:53.339Z,3.80
2023-09-28T10:47:23.426Z,3.78
2023-09-28T10:50:00.558Z,4.10
2023-09-28T10:52:28.984Z,4.07
2023-09-28T10:54:57.850Z,3.63
2023-09-28T10:57:34.107Z,3.90
2023-09-28T11:00:03.032Z,4.53
2023-09-28T11:02:37.173Z,3.75
2023-09-28T11:05:08.617Z,3.88
2023-09-28T11:07:37.491Z,3.60
2023-09-28T11:10:06.868Z,3.90
2023-09-28T11:12:35.191Z,3.85
2023-09-28T11:15:04.700Z,4.15
2023-09-28T11:17:34.427Z,3.72
2023-09-28T11:20:02.819Z,3.58
2023-09-28T11:22:31.118Z,4.03
2023-09-28T11:24:59.591Z,3.92
2023-09-28T11:27:28.866Z,3.72
2023-09-28T11:29:57.416Z,3.70
2023-09-28T11:32:26.068Z,3.90
2023-09-28T11:34:55.850Z,4.07
2023-09-28T11:37:25.248Z,4.20
2023-09-28T11:39:53.587Z,3.63
2023-09-28T11:42:24.355Z,3.95
2023-09-28T11:44:52.502Z,4.63
2023-09-28T11:47:23.341Z,4.28
2023-09-28T11:49:53.030Z,4.60
2023-09-28T11:52:24.880Z,4.45
2023-09-28T11:54:53.116Z,5.07
2023-09-28T11:57:21.277Z,4.93
2023-09-28T11:59:49.479Z,5.00
2023-09-28T12:02:19.167Z,5.40
2023-09-28T12:04:47.450Z,4.80
2023-09-28T12:07:17.596Z,4.97
2023-09-28T12:10:02.185Z,5.25
2023-09-28T12:12:32.574Z,4.30
2023-09-28T12:15:00.898Z,4.72
2023-09-28T12:17:29.579Z,4.13
2023-09-28T12:19:57.816Z,4.00
2023-09-28T12:22:26.043Z,3.67
2023-09-28T12:24:57.154Z,4.13
2023-09-28T12:27:25.849Z,3.70
2023-09-28T12:29:53.896Z,3.78
2023-09-28T12:32:22.050Z,3.95
2023-09-28T12:34:50.295Z,4.22
2023-09-28T12:37:19.096Z,3.90
2023-09-28T12:39:47.127Z,4.28
2023-09-28T12:42:16.799Z,3.97
2023-09-28T12:44:45.526Z,3.78
2023-09-28T12:47:14.510Z,3.70
2023-09-28T12:49:43.745Z,3.63
2023-09-28T12:52:21.747Z,4.00
2023-09-28T12:54:50.136Z,3.60
2023-09-28T12:57:19.670Z,3.38
2023-09-28T12:59:47.976Z,3.75
2023-09-28T13:02:16.386Z,3.55
2023-09-28T13:04:46.001Z,3.55
2023-09-28T13:07:14.417Z,4.18
2023-09-28T13:09:44.230Z,3.72
2023-09-28T13:12:13.431Z,3.92
2023-09-28T13:14:44.429Z,3.60
2023-09-28T13:17:14.017Z,3.63
2023-09-28T13:19:44.646Z,3.53
2023-09-28T13:22:14.860Z,3.60
2023-09-28T13:24:45.432Z,3.88
2023-09-28T13:27:13.555Z,3.65
2023-09-28T13:29:43.312Z,3.22
2023-09-28T13:32:14.244Z,3.80
2023-09-28T13:34:43.394Z,4.22
2023-09-28T13:37:12.592Z,3.80
2023-09-28T13:39:40.749Z,3.83
2023-09-28T13:42:10.851Z,3.97
2023-09-28T13:44:40.792Z,4.90
2023-09-28T13:47:10.598Z,4.20
2023-09-28T13:49:39.251Z,3.80
2023-09-28T13:52:09.263Z,4.38
2023-09-28T13:54:37.620Z,4.60
2023-09-28T13:57:08.913Z,4.03
2023-09-28T13:59:38.884Z,4.40
2023-09-28T14:02:09.200Z,4.50
2023-09-28T14:04:38.779Z,4.60
2023-09-28T14:07:06.836Z,4.35
2023-09-28T14:09:34.997Z,4.38
2023-09-28T14:12:05.540Z,4.50
2023-09-28T14:14:34.088Z,3.95
2023-09-28T14:17:09.924Z,4.00
2023-09-28T14:19:40.977Z,5.03
2023-09-28T14:22:09.110Z,4.85
2023-09-28T14:24:37.247Z,4.05
2023-09-28T14:27:05.502Z,4.88
2023-09-28T14:29:34.791Z,4.50
2023-09-28T14:32:03.275Z,4.32
2023-09-28T14:34:31.377Z,4.03
2023-09-28T14:37:00.956Z,4.05
2023-09-28T14:39:29.849Z,4.47
2023-09-28T14:41:57.991Z,3.72
2023-09-28T14:44:26.205Z,4.20
2023-09-28T14:46:54.424Z,4.32
2023-09-28T14:49:22.606Z,3.92
2023-09-28T14:51:51.012Z,4.25
2023-09-28T14:54:20.695Z,4.82
2023-09-28T14:56:57.929Z,4.53
2023-09-28T14:59:26.043Z,4.32
2023-09-28T15:01:54.152Z,4.65
2023-09-28T15:04:22.195Z,4.55
2023-09-28T15:06:50.273Z,4.55
2023-09-28T15:09:19.792Z,4.15
2023-09-28T15:11:49.222Z,4.40
2023-09-28T15:14:17.327Z,4.00
2023-09-28T15:16:49.139Z,4.45
2023-09-28T15:19:17.276Z,4.20
2023-09-28T15:21:45.325Z,4.50
2023-09-28T15:24:15.370Z,4.40
2023-09-28T15:26:43.610Z,4.82
2023-09-28T15:29:14.895Z,5.63
2023-09-28T15:31:43.324Z,5.63
2023-09-28T15:34:11.766Z,6.88
2023-09-28T15:36:39.911Z,6.05
2023-09-28T15:39:08.748Z,6.60
2023-09-28T15:41:38.105Z,8.18
2023-09-28T15:44:07.172Z,9.38
2023-09-28T15:46:37.257Z,10.20
2023-09-28T15:49:06.301Z,11.38
2023-09-28T15:51:35.270Z,9.65
2023-09-28T15:54:04.429Z,9.07
2023-09-28T15:56:32.815Z,8.75
2023-09-28T15:59:00.938Z,6.95
2023-09-28T16:01:29.039Z,6.65
2023-09-28T16:03:58.625Z,6.28
2023-09-28T16:06:26.938Z,5.65
2023-09-28T16:08:55.239Z,5.15
2023-09-28T16:11:23.547Z,5.00
2023-09-28T16:13:51.723Z,5.97
2023-09-28T16:16:21.352Z,6.35
2023-09-28T16:18:49.658Z,5.47
2023-09-28T16:21:19.167Z,5.40
2023-09-28T16:23:47.408Z,4.75
2023-09-28T16:26:15.673Z,4.78
2023-09-28T16:28:44.010Z,5.20
2023-09-28T16:31:12.224Z,5.30
2023-09-28T16:33:41.629Z,5.90
2023-09-28T16:36:09.999Z,5.47
2023-09-28T16:38:39.660Z,5.10
2023-09-28T16:41:07.839Z,5.37
2023-09-28T16:43:35.961Z,5.90
2023-09-28T16:46:04.698Z,6.10
2023-09-28T16:48:33.155Z,7.95
2023-09-28T16:51:01.279Z,9.13
2023-09-28T16:53:29.408Z,9.25
2023-09-28T16:55:59.039Z,9.60
2023-09-28T16:58:27.147Z,8.80
2023-09-28T17:00:55.218Z,7.97
2023-09-28T17:03:23.491Z,7.63
2023-09-28T17:05:52.222Z,7.17
2023-09-28T17:08:20.457Z,6.97
2023-09-28T17:10:48.857Z,6.50
2023-09-28T17:13:18.422Z,6.23
2023-09-28T17:15:49.663Z,6.27
2023-09-28T17:18:21.470Z,6.03
2023-09-28T17:20:50.689Z,6.40
2023-09-28T17:23:19.198Z,5.90
2023-09-28T17:25:47.416Z,6.03
2023-09-28T17:28:15.514Z,6.03
2023-09-28T17:30:47.304Z,6.77
2023-09-28T17:33:15.781Z,6.00
2023-09-28T17:35:44.308Z,6.23
2023-09-28T17:38:12.588Z,6.50
2023-09-28T17:40:40.784Z,6.70
2023-09-28T17:43:08.914Z,7.00
2023-09-28T17:45:37.099Z,7.33
2023-09-28T17:48:09.354Z,7.53
2023-09-28T17:50:38.131Z,8.37
2023-09-28T17:53:07.528Z,8.70
2023-09-28T17:55:38.148Z,9.40
2023-09-28T17:58:06.545Z,9.77
2023-09-28T18:00:34.726Z,9.03
2023-09-28T18:03:04.589Z,9.33
2023-09-28T18:05:34.331Z,9.43
2023-09-28T18:08:02.599Z,8.77
2023-09-28T18:10:32.566Z,8.80
2023-09-28T18:13:03.189Z,9.20
2023-09-28T18:15:32.387Z,9.20
2023-09-28T18:18:00.573Z,9.03
2023-09-28T18:20:28.740Z,9.40
2023-09-28T18:22:58.308Z,9.40
2023-09-28T18:25:26.808Z,9.67
2023-09-28T18:27:55.311Z,9.93
2023-09-28T18:30:23.579Z,9.53
2023-09-28T18:32:55.360Z,10.30
2023-09-28T18:35:23.933Z,9.77
2023-09-28T18:37:52.092Z,10.23
2023-09-28T18:40:21.586Z,10.87
2023-09-28T18:42:49.765Z,9.83
2023-09-28T18:45:18.050Z,9.97
2023-09-28T18:47:47.436Z,9.87
2023-09-28T18:50:18.929Z,10.10
2023-09-28T18:52:50.225Z,9.73
2023-09-28T18:55:18.452Z,9.87
2023-09-28T18:57:47.890Z,9.67
2023-09-28T19:00:17.283Z,9.43
2023-09-28T19:02:45.819Z,9.30
2023-09-28T19:05:15.103Z,9.30
2023-09-28T19:07:43.293Z,9.13
2023-09-28T19:10:11.812Z,9.47
2023-09-28T19:12:39.953Z,9.83
2023-09-28T19:15:12.514Z,9.33
2023-09-28T19:17:40.803Z,9.37
2023-09-28T19:20:10.375Z,9.37
2023-09-28T19:22:38.532Z,9.90
2023-09-28T19:25:09.182Z,9.83
2023-09-28T19:27:39.498Z,9.20
2023-09-28T19:30:11.228Z,10.33
2023-09-28T19:32:39.594Z,10.20
2023-09-28T19:35:09.764Z,9.30
2023-09-28T19:37:39.777Z,9.87
2023-09-28T19:40:10.574Z,9.70
2023-09-28T19:42:41.036Z,9.50
2023-09-28T19:45:12.738Z,10.17
2023-09-28T19:47:41.272Z,9.70
2023-09-28T19:50:10.473Z,9.90
2023-09-28T19:52:38.572Z,9.73
2023-09-28T19:55:09.798Z,10.00
2023-09-28T19:57:37.990Z,10.13
2023-09-28T20:00:07.022Z,9.63
2023-09-28T20:02:36.580Z,10.13
2023-09-28T20:05:05.796Z,9.83
2023-09-28T20:07:34.793Z,10.07
2023-09-28T20:10:02.951Z,9.53
2023-09-28T20:12:30.961Z,9.37
2023-09-28T20:14:58.992Z,9.53
2023-09-28T20:17:27.125Z,9.40
2023-09-28T20:19:56.807Z,9.47
2023-09-28T20:22:26.130Z,10.07
2023-09-28T20:24:54.597Z,9.47
2023-09-28T20:27:22.725Z,9.80
2023-09-28T20:29:50.922Z,9.70
2023-09-28T20:32:19.082Z,10.03
2023-09-28T20:34:47.166Z,10.47
2023-09-28T20:37:16.672Z,10.13
2023-09-28T20:39:44.749Z,10.50
2023-09-28T20:42:13.105Z,9.67
2023-09-28T20:44:41.348Z,9.60
2023-09-28T20:47:09.587Z,9.63
2023-09-28T20:49:37.927Z,9.27
2023-09-28T20:52:06.075Z,10.20
2023-09-28T20:54:35.636Z,10.10
2023-09-28T20:57:03.878Z,10.00
2023-09-28T20:59:32.279Z,9.60
2023-09-28T21:02:01.151Z,9.93
2023-09-28T21:04:29.321Z,9.33
2023-09-28T21:06:57.504Z,9.93
2023-09-28T21:09:25.657Z,10.13
2023-09-28T21:11:55.816Z,9.67
2023-09-28T21:14:24.285Z,10.13
2023-09-28T21:16:52.641Z,9.80
2023-09-28T21:19:20.911Z,10.47
2023-09-28T21:21:49.000Z,10.43
2023-09-28T21:24:17.070Z,9.60
2023-09-28T21:26:45.355Z,10.47
2023-09-28T21:29:15.010Z,10.17
2023-09-28T21:31:43.118Z,9.60
2023-09-28T21:34:11.344Z,9.93
2023-09-28T21:36:39.656Z,10.50
2023-09-28T21:39:07.863Z,10.00
2023-09-28T21:41:36.109Z,10.33
2023-09-28T21:44:04.255Z,10.07
2023-09-28T21:46:33.652Z,9.93
2023-09-28T21:49:01.767Z,9.87
2023-09-28T21:51:29.997Z,9.40
2023-09-28T21:53:58.143Z,9.77
2023-09-28T21:56:27.022Z,9.53
2023-09-28T21:58:55.695Z,9.33
2023-09-28T22:01:24.083Z,9.77
2023-09-28T22:03:53.584Z,9.43
2023-09-28T22:06:21.765Z,9.77
2023-09-28T22:08:50.006Z,9.97
2023-09-28T22:11:18.177Z,9.47
2023-09-28T22:13:46.497Z,9.53
2023-09-28T22:16:15.796Z,8.93
2023-09-28T22:18:43.990Z,9.00
2023-09-28T22:21:13.546Z,8.90
2023-09-28T22:23:41.685Z,10.00
2023-09-28T22:26:09.899Z,9.27
2023-09-28T22:28:38.070Z,9.93
2023-09-28T22:31:06.216Z,9.73
2023-09-28T22:33:35.787Z,9.47
2023-09-28T22:36:04.240Z,9.10
2023-09-28T22:38:34.204Z,9.90
2023-09-28T22:41:02.465Z,9.80
2023-09-28T22:43:30.601Z,9.30
2023-09-28T22:45:59.527Z,9.23
2023-09-28T22:48:27.815Z,9.80
2023-09-28T22:50:56.025Z,9.93
2023-09-28T22:53:24.183Z,9.77
2023-09-28T22:55:54.196Z,9.53
2023-09-28T22:58:22.285Z,9.87
2023-09-28T23:00:50.399Z,9.90
2023-09-28T23:03:18.527Z,9.77
2023-09-28T23:05:49.269Z,9.90
2023-09-28T23:08:18.353Z,9.50
2023-09-28T23:10:46.427Z,10.13
2023-09-28T23:13:17.258Z,9.87
2023-09-28T23:15:46.734Z,10.03
2023-09-28T23:18:15.036Z,9.87
2023-09-28T23:20:46.210Z,9.43
2023-09-28T23:23:16.814Z,9.90
2023-09-28T23:25:45.114Z,10.43
2023-09-28T23:28:13.244Z,10.43
2023-09-28T23:30:44.314Z,10.20
2023-09-28T23:33:12.585Z,10.17
2023-09-28T23:35:41.655Z,10.20
2023-09-28T23:38:11.604Z,10.30
2023-09-28T23:40:40.029Z,10.37
2023-09-28T23:43:09.776Z,10.63
2023-09-28T23:45:39.029Z,10.17
2023-09-28T23:48:10.619Z,9.80
2023-09-28T23:50:38.880Z,9.73
2023-09-28T23:53:10.553Z,10.03
2023-09-28T23:55:40.237Z,9.87
2023-09-28T23:58:08.328Z,9.90
